Time;durP1;ratioP1;P1;durP2;ratioP2;P2;SDS_P1;SDS_P2;PMS_P1;PMS_P2;Temp;Humidity;BMP_temperature;BMP_pressure;BME280_temperature;BME280_humidity;BME280_pressure;Samples;Min_cycle;Max_cycle;Signal;HPM_P1;HPM_P2
2023/05/04 00:01:42;;;;;;;;;6.50;5.75;;;;;19.87;39.42;101019.03;4914168;28;45539;-64
2023/05/04 00:04:08;;;;;;;;;9.25;7.50;;;;;19.92;39.30;101021.81;4946094;28;46219;-63
2023/05/04 00:06:33;;;;;;;;;11.00;10.00;;;;;19.93;39.35;101031.03;4930066;28;45393;-63
2023/05/04 00:08:59;;;;;;;;;6.50;6.50;;;;;19.98;39.51;101014.38;4915494;28;45373;-63
2023/05/04 00:11:25;;;;;;;;;7.00;7.00;;;;;19.97;39.55;101006.28;4915982;28;45329;-64
2023/05/04 00:13:51;;;;;;;;;8.25;8.25;;;;;19.95;39.61;101005.69;4929893;28;45373;-64
2023/05/04 00:16:16;;;;;;;;;9.00;8.50;;;;;19.76;39.78;100992.19;5020679;28;45234;-64
2023/05/04 00:18:42;;;;;;;;;5.00;5.00;;;;;19.83;40.21;101000.31;5048072;28;45393;-63
2023/05/04 00:21:07;;;;;;;;;5.75;5.75;;;;;19.81;39.98;100994.16;5015601;28;45264;-62
2023/05/04 00:23:33;;;;;;;;;6.50;6.50;;;;;19.87;39.82;100995.88;5047478;28;46768;-63
2023/05/04 00:25:58;;;;;;;;;7.00;6.00;;;;;19.76;40.21;100992.19;5047565;28;45331;-63
2023/05/04 00:28:24;;;;;;;;;9.00;7.75;;;;;19.76;40.38;100994.97;5015480;28;45302;-64
2023/05/04 00:30:52;;;;;;;;;6.00;6.00;;;;;19.76;40.36;100990.25;5030799;28;45409;-64
2023/05/04 00:33:18;;;;;;;;;9.00;8.60;;;;;19.74;40.33;100991.63;5015237;28;45496;-63
2023/05/04 00:35:43;;;;;;;;;7.25;7.25;;;;;19.69;40.18;100986.84;4971339;28;45326;-63
2023/05/04 00:38:08;;;;;;;;;7.25;7.25;;;;;19.71;40.27;100983.81;4940257;28;45386;-64
2023/05/04 00:40:34;;;;;;;;;7.75;7.00;;;;;19.61;40.65;100967.88;4945964;28;45449;-63
2023/05/04 00:43:00;;;;;;;;;8.00;8.00;;;;;19.60;40.83;100980.13;4946017;28;47531;-64
2023/05/04 00:45:25;;;;;;;;;7.00;7.00;;;;;19.54;40.79;100979.25;4945537;28;45414;-62
2023/05/04 00:47:51;;;;;;;;;9.50;8.50;;;;;19.59;40.63;100976.47;4946221;28;45406;-64
2023/05/04 00:50:17;;;;;;;;;7.25;7.25;;;;;19.54;40.97;100979.25;4946160;28;45464;-62
2023/05/04 00:52:42;;;;;;;;;6.25;6.25;;;;;19.50;41.19;100972.53;4945837;28;48005;-62
2023/05/04 00:55:08;;;;;;;;;7.00;7.00;;;;;19.47;41.18;100962.75;4914986;28;45266;-63
2023/05/04 00:57:34;;;;;;;;;10.20;8.00;;;;;19.50;41.31;100967.81;4915052;28;45393;-64
2023/05/04 01:00:00;;;;;;;;;9.75;9.75;;;;;19.39;41.04;100954.91;4915488;28;45291;-63
2023/05/04 01:02:25;;;;;;;;;9.00;7.00;;;;;19.39;41.29;100960.47;4945584;28;45702;-63
2023/05/04 01:04:51;;;;;;;;;7.00;5.50;;;;;19.41;41.32;100965.78;4914714;28;45361;-63
2023/05/04 01:07:31;;;;;;;;;9.00;7.75;;;;;19.43;41.27;100961.59;4914602;28;45412;-62
2023/05/04 01:10:34;;;;;;;;;8.60;8.60;;;;;19.43;41.53;100956.03;4944034;28;45307;-63
2023/05/04 01:13:11;;;;;;;;;8.20;7.80;;;;;19.37;41.62;100946.81;4970076;28;46719;-63
2023/05/04 01:15:37;;;;;;;;;8.20;8.20;;;;;19.25;41.85;100940.59;4941316;28;45349;-63
2023/05/04 01:18:03;;;;;;;;;7.20;7.20;;;;;19.25;41.56;100950.91;5046474;28;45341;-63
2023/05/04 01:20:28;;;;;;;;;8.50;8.50;;;;;19.27;42.05;100952.31;5015073;28;45431;-64
2023/05/04 01:22:55;;;;;;;;;10.50;9.00;;;;;19.27;42.07;100946.75;5046132;28;45789;-63
2023/05/04 01:25:20;;;;;;;;;7.20;7.20;;;;;19.25;42.04;100953.69;5014962;28;45299;-63
2023/05/04 01:27:48;;;;;;;;;8.25;8.25;;;;;19.16;42.29;100950.56;5013160;28;45370;-62
2023/05/04 01:30:24;;;;;;;;;10.20;8.80;;;;;19.13;42.61;100957.47;5046820;28;45444;-63
2023/05/04 01:32:50;;;;;;;;;11.40;8.80;;;;;19.14;42.22;100944.41;5045962;28;46139;-62
2023/05/04 01:35:15;;;;;;;;;10.00;7.00;;;;;19.13;42.36;100942.72;5029524;28;45723;-64
2023/05/04 01:37:41;;;;;;;;;10.00;10.00;;;;;19.15;42.60;100944.13;5029905;28;45435;-63
2023/05/04 01:40:07;;;;;;;;;9.75;9.75;;;;;19.01;42.65;100927.03;5014337;28;45760;-63
2023/05/04 01:42:33;;;;;;;;;7.40;7.40;;;;;19.03;42.65;100919.28;5045990;28;47800;-64
2023/05/04 01:44:58;;;;;;;;;7.00;7.00;;;;;19.04;42.81;100925.66;5046149;28;45779;-63
2023/05/04 01:47:24;;;;;;;;;11.00;10.00;;;;;19.03;42.87;100929.56;5046265;28;45834;-65
2023/05/04 01:49:49;;;;;;;;;11.00;9.50;;;;;18.96;42.89;100919.47;5014580;28;45353;-62
2023/05/04 01:52:15;;;;;;;;;8.75;8.75;;;;;18.88;43.38;100914.38;5014161;28;45881;-63
2023/05/04 01:54:40;;;;;;;;;9.00;8.50;;;;;18.96;43.30;100926.97;5046360;28;45436;-63
2023/05/04 01:57:06;;;;;;;;;8.50;8.50;;;;;18.92;43.11;100923.91;5029117;28;45334;-63
2023/05/04 01:59:32;;;;;;;;;11.25;9.00;;;;;18.91;43.14;100929.72;5013020;28;45450;-64
2023/05/04 02:01:57;;;;;;;;;9.50;9.50;;;;;18.91;43.22;100935.28;5013665;28;45393;-63
2023/05/04 02:04:23;;;;;;;;;11.50;10.50;;;;;18.95;43.04;100934.47;4983648;28;45490;-62
2023/05/04 02:06:48;;;;;;;;;8.75;8.75;;;;;18.90;43.38;100934.41;4931639;28;45327;-63
2023/05/04 02:09:14;;;;;;;;;9.00;9.00;;;;;18.88;43.18;100925.50;4933101;28;45444;-63
2023/05/04 02:11:40;;;;;;;;;10.25;10.00;;;;;18.95;43.25;100926.13;4963764;28;45649;-63
2023/05/04 02:14:05;;;;;;;;;8.00;8.00;;;;;18.93;43.22;100933.91;4932292;28;45430;-63
2023/05/04 02:16:34;;;;;;;;;11.50;9.75;;;;;18.92;43.13;100935.03;4924310;28;45458;-63
2023/05/04 02:18:59;;;;;;;;;9.20;9.20;;;;;18.88;43.28;100927.47;4930802;28;45599;-63
2023/05/04 02:21:25;;;;;;;;;10.50;10.50;;;;;18.85;43.52;100923.28;4930663;28;46354;-64
2023/05/04 02:23:51;;;;;;;;;8.25;8.25;;;;;18.83;43.67;100923.53;4931496;28;45529;-64
2023/05/04 02:26:16;;;;;;;;;8.50;8.50;;;;;18.81;43.59;100922.09;4916509;28;45755;-63
2023/05/04 02:28:42;;;;;;;;;12.00;10.25;;;;;18.79;43.55;100905.69;4931236;28;45650;-63
2023/05/04 02:31:07;;;;;;;;;9.50;8.25;;;;;18.72;43.63;100891.16;4915979;28;46488;-62
2023/05/04 02:33:33;;;;;;;;;10.00;10.00;;;;;18.78;43.51;100905.97;4931176;28;45430;-64
2023/05/04 02:35:58;;;;;;;;;12.00;8.75;;;;;18.76;43.93;100914.56;4917120;28;45797;-63
2023/05/04 02:38:25;;;;;;;;;13.25;12.50;;;;;18.73;43.76;100901.19;4931239;28;45456;-63
2023/05/04 02:40:50;;;;;;;;;12.40;9.00;;;;;18.77;43.85;100905.13;4931376;28;45928;-63
2023/05/04 02:43:16;;;;;;;;;11.25;9.75;;;;;18.78;43.69;100906.78;4916282;28;45309;-63
2023/05/04 02:45:41;;;;;;;;;13.75;11.00;;;;;18.77;43.92;100915.38;4916570;28;45457;-63
2023/05/04 02:48:07;;;;;;;;;9.50;9.50;;;;;18.75;43.96;100912.03;4916921;28;45579;-64
2023/05/04 02:50:33;;;;;;;;;11.75;11.75;;;;;18.62;44.29;100916.09;4930851;28;45380;-63
2023/05/04 02:52:58;;;;;;;;;8.00;8.00;;;;;18.46;44.06;100901.19;4931388;28;45425;-63
2023/05/04 02:55:24;;;;;;;;;11.25;10.25;;;;;18.45;44.45;100896.75;4930728;28;45198;-63
2023/05/04 02:57:50;;;;;;;;;9.00;8.00;;;;;18.53;44.34;100908.19;4917090;28;45199;-64
2023/05/04 03:00:16;;;;;;;;;10.25;10.25;;;;;18.50;44.28;100908.75;4931247;28;46355;-63
2023/05/04 03:02:41;;;;;;;;;10.80;10.20;;;;;18.53;44.58;100910.97;4930582;28;45626;-62
2023/05/04 03:05:07;;;;;;;;;9.75;9.75;;;;;18.56;44.24;100909.63;4916670;28;45385;-63
2023/05/04 03:07:33;;;;;;;;;11.00;8.75;;;;;18.55;44.38;100897.69;4914750;28;45340;-62
2023/05/04 03:09:58;;;;;;;;;11.25;11.25;;;;;18.59;44.28;100900.78;4915097;28;45701;-63
2023/05/04 03:12:24;;;;;;;;;11.50;10.25;;;;;18.58;44.21;100890.78;4930355;28;45448;-63
2023/05/04 03:14:49;;;;;;;;;12.00;10.75;;;;;18.49;44.13;100900.66;4930991;28;45413;-63
2023/05/04 03:17:15;;;;;;;;;11.25;11.25;;;;;18.45;44.51;100880.91;4991197;28;45334;-63
2023/05/04 03:19:40;;;;;;;;;15.00;13.75;;;;;18.46;44.42;100874.22;5015192;28;45645;-62
2023/05/04 03:22:06;;;;;;;;;9.25;9.25;;;;;18.50;44.51;100888.44;5048314;28;45437;-63
2023/05/04 03:24:31;;;;;;;;;12.25;11.75;;;;;18.53;44.54;100891.53;5016559;28;45388;-63
2023/05/04 03:26:57;;;;;;;;;11.25;9.50;;;;;18.58;44.44;100884.34;5016903;28;45388;-63
2023/05/04 03:29:22;;;;;;;;;10.75;10.75;;;;;18.53;44.17;100885.97;5048124;28;47362;-63
2023/05/04 03:31:48;;;;;;;;;12.00;9.00;;;;;18.53;44.29;100879.59;5014904;28;45437;-64
2023/05/04 03:34:14;;;;;;;;;15.25;12.50;;;;;18.39;44.42;100859.72;5048270;28;45391;-63
2023/05/04 03:36:39;;;;;;;;;12.50;11.00;;;;;18.40;44.63;100873.34;5015212;28;45398;-64
2023/05/04 03:39:05;;;;;;;;;12.00;12.00;;;;;18.44;44.49;100876.44;5031295;28;46029;-64
2023/05/04 03:41:30;;;;;;;;;12.25;9.25;;;;;18.44;44.43;100868.09;5031444;28;45278;-64
2023/05/04 03:43:56;;;;;;;;;13.50;11.75;;;;;18.37;44.77;100881.38;5016211;28;45388;-63
2023/05/04 03:46:22;;;;;;;;;11.00;9.00;;;;;18.31;44.99;100879.63;5016125;28;45428;-63
2023/05/04 03:48:47;;;;;;;;;12.50;11.00;;;;;18.23;45.14;100886.47;5030814;28;48658;-62
2023/05/04 03:51:13;;;;;;;;;12.50;10.00;;;;;18.26;45.11;100883.19;4919930;28;45917;-63
2023/05/04 03:53:38;;;;;;;;;12.25;9.00;;;;;18.33;44.96;100885.75;4915497;28;45443;-63
2023/05/04 03:56:04;;;;;;;;;14.75;13.25;;;;;18.31;44.91;100866.59;4915684;28;45390;-63
2023/05/04 03:58:29;;;;;;;;;12.50;11.75;;;;;18.35;44.89;100880.81;4915588;28;46118;-62
2023/05/04 04:00:55;;;;;;;;;9.50;9.50;;;;;18.27;44.97;100857.94;4915464;28;45471;-63
2023/05/04 04:03:20;;;;;;;;;14.25;11.00;;;;;18.35;45.01;100862.16;4914291;28;45461;-63
2023/05/04 04:05:46;;;;;;;;;17.25;14.25;;;;;18.36;44.93;100863.84;4930006;28;45562;-63
2023/05/04 04:08:13;;;;;;;;;12.00;12.00;;;;;18.32;45.07;100861.84;4930320;28;46390;-63
2023/05/04 04:10:38;;;;;;;;;13.40;10.80;;;;;18.27;45.00;100857.09;4915233;28;45384;-63
2023/05/04 04:13:04;;;;;;;;;13.50;12.00;;;;;18.36;45.12;100861.06;4946069;28;45495;-63
2023/05/04 04:15:29;;;;;;;;;11.25;10.25;;;;;18.28;45.00;100865.19;4930483;28;45652;-63
2023/05/04 04:17:55;;;;;;;;;14.00;11.00;;;;;18.32;45.03;100865.50;5017597;28;46528;-63
2023/05/04 04:20:20;;;;;;;;;13.75;11.50;;;;;18.32;45.13;100864.63;5047651;28;45400;-63
2023/05/04 04:22:46;;;;;;;;;14.00;11.75;;;;;18.22;45.09;100852.31;5047471;28;45313;-63
2023/05/04 04:25:12;;;;;;;;;12.75;9.00;;;;;18.32;45.36;100873.81;5047758;28;45352;-63
2023/05/04 04:27:37;;;;;;;;;13.80;10.40;;;;;18.27;45.17;100869.06;5047145;28;45586;-63
2023/05/04 04:30:03;;;;;;;;;11.00;9.75;;;;;18.31;45.13;100865.75;5047193;28;45878;-64
2023/05/04 04:32:29;;;;;;;;;11.00;10.80;;;;;18.29;45.22;100852.09;5047372;28;45837;-64
2023/05/04 04:34:55;;;;;;;;;14.00;12.25;;;;;18.31;45.25;100844.38;5031261;28;45906;-63
2023/05/04 04:37:20;;;;;;;;;12.00;11.50;;;;;18.27;45.27;100834.88;5015148;28;45422;-63
2023/05/04 04:39:46;;;;;;;;;12.25;10.00;;;;;18.33;45.12;100836.59;5046981;28;45483;-62
2023/05/04 04:42:12;;;;;;;;;13.50;12.00;;;;;18.34;45.29;100843.84;5014417;28;45913;-63
2023/05/04 04:44:38;;;;;;;;;10.60;10.60;;;;;18.35;45.19;100836.34;5014521;28;45608;-62
2023/05/04 04:47:03;;;;;;;;;13.00;12.00;;;;;18.21;45.45;100816.47;5014623;28;45471;-64
2023/05/04 04:49:29;;;;;;;;;13.75;12.75;;;;;18.29;45.38;100829.88;5047846;28;45830;-63
2023/05/04 04:51:54;;;;;;;;;13.50;13.25;;;;;18.27;45.36;100815.41;5015207;28;45361;-63
2023/05/04 04:54:20;;;;;;;;;14.25;13.00;;;;;18.19;45.40;100813.94;5047100;28;45379;-64
2023/05/04 04:56:45;;;;;;;;;15.75;14.50;;;;;18.19;45.54;100818.69;5014732;28;46506;-63
2023/05/04 04:59:12;;;;;;;;;13.00;11.50;;;;;18.20;45.33;100818.41;5014622;28;45286;-63
2023/05/04 05:01:38;;;;;;;;;16.20;12.00;;;;;18.16;45.28;100808.94;5047126;28;45424;-63
2023/05/04 05:04:04;;;;;;;;;13.25;13.00;;;;;18.23;45.23;100817.88;5014855;28;45521;-63
2023/05/04 05:06:29;;;;;;;;;20.50;13.75;;;;;18.18;45.66;100812.28;5014582;28;45467;-63
2023/05/04 05:08:55;;;;;;;;;13.00;13.00;;;;;18.19;45.62;100816.72;5046899;28;45465;-63
2023/05/04 05:11:21;;;;;;;;;14.75;13.25;;;;;18.14;45.90;100819.44;5014571;28;45400;-63
2023/05/04 05:13:46;;;;;;;;;13.50;13.00;;;;;18.13;45.45;100809.44;5047224;28;45599;-63
2023/05/04 05:16:11;;;;;;;;;13.75;13.00;;;;;18.12;45.64;100808.63;5037658;28;45433;-63
2023/05/04 05:18:37;;;;;;;;;12.25;11.25;;;;;18.01;45.40;100790.97;4914857;28;45208;-63
2023/05/04 05:21:04;;;;;;;;;11.25;11.25;;;;;18.11;45.61;100809.72;4913440;28;45369;-62
2023/05/04 05:23:29;;;;;;;;;12.40;12.40;;;;;18.08;45.60;100801.91;4928919;28;45276;-63
2023/05/04 05:25:55;;;;;;;;;13.25;13.25;;;;;18.03;45.82;100818.47;4914647;28;45437;-62
2023/05/04 05:28:21;;;;;;;;;12.00;11.25;;;;;18.07;45.78;100810.47;4928499;28;45384;-63
2023/05/04 05:30:48;;;;;;;;;14.80;12.00;;;;;18.07;45.78;100808.56;4929072;28;45435;-62
2023/05/04 05:33:14;;;;;;;;;15.00;14.00;;;;;18.06;45.34;100806.03;4913225;28;45591;-62
2023/05/04 05:35:39;;;;;;;;;12.25;11.00;;;;;18.08;45.63;100823.28;4888673;28;47123;-63
2023/05/04 05:38:05;;;;;;;;;11.25;10.50;;;;;18.04;45.63;100810.97;4914079;28;45381;-62
2023/05/04 05:40:31;;;;;;;;;13.50;13.50;;;;;18.05;45.74;100810.75;4928710;28;45385;-62
2023/05/04 05:42:57;;;;;;;;;12.50;11.25;;;;;18.08;45.83;100826.88;4928854;28;45523;-62
2023/05/04 05:45:22;;;;;;;;;14.00;11.25;;;;;18.12;45.69;100835.53;4928450;28;46002;-64
2023/05/04 05:47:48;;;;;;;;;13.00;12.00;;;;;18.07;45.60;100833.53;4914065;28;45414;-63
2023/05/04 05:50:13;;;;;;;;;14.25;13.75;;;;;18.13;45.66;100849.16;4929050;28;45336;-64
2023/05/04 05:52:39;;;;;;;;;14.00;11.00;;;;;18.15;45.47;100848.91;4930260;28;45579;-62
2023/05/04 05:55:04;;;;;;;;;15.25;13.00;;;;;18.05;45.73;100832.09;4916757;28;46670;-64
2023/05/04 05:57:30;;;;;;;;;13.25;12.50;;;;;18.05;45.79;100832.09;4916826;28;45375;-65
2023/05/04 05:59:56;;;;;;;;;14.75;13.50;;;;;18.05;45.85;100843.19;4915861;28;45384;-65
2023/05/04 06:02:22;;;;;;;;;16.00;15.40;;;;;18.01;45.90;100823.44;4931599;28;45345;-65
2023/05/04 06:04:47;;;;;;;;;15.75;13.25;;;;;18.23;45.61;100845.66;4915526;28;45505;-64
2023/05/04 06:07:13;;;;;;;;;16.00;14.50;;;;;18.20;45.83;100832.28;4916996;28;45379;-64
2023/05/04 06:09:38;;;;;;;;;14.00;14.00;;;;;18.24;45.79;100824.25;4931637;28;45455;-65
2023/05/04 06:12:05;;;;;;;;;12.50;12.50;;;;;18.20;45.90;100810.06;4917042;28;45441;-64
2023/05/04 06:14:31;;;;;;;;;15.00;12.60;;;;;18.31;45.92;100819.38;4931468;28;46353;-65
2023/05/04 06:16:57;;;;;;;;;13.00;10.80;;;;;18.40;45.59;100814.16;4945250;28;45335;-64
2023/05/04 06:19:23;;;;;;;;;10.25;10.25;;;;;18.39;45.52;100798.59;5017355;28;45356;-62
2023/05/04 06:21:48;;;;;;;;;12.25;12.25;;;;;18.39;45.27;100804.13;5017506;28;45599;-62
2023/05/04 06:24:14;;;;;;;;;14.00;13.00;;;;;18.38;45.69;100792.22;5017280;28;45909;-62
2023/05/04 06:26:39;;;;;;;;;13.25;12.25;;;;;18.46;45.68;100798.38;5017267;28;45211;-62
2023/05/04 06:29:05;;;;;;;;;14.25;13.00;;;;;18.46;45.21;100801.16;5016428;28;45325;-62
2023/05/04 06:31:30;;;;;;;;;11.75;11.75;;;;;18.42;45.36;100793.34;5049886;28;45242;-61
2023/05/04 06:33:56;;;;;;;;;10.00;10.00;;;;;18.41;45.52;100788.88;5016831;28;45703;-61
2023/05/04 06:36:24;;;;;;;;;14.20;14.00;;;;;18.49;45.29;100804.25;5049089;28;45384;-61
2023/05/04 06:38:50;;;;;;;;;14.20;11.20;;;;;18.53;45.43;100819.28;5019310;28;45436;-63
2023/05/04 06:41:15;;;;;;;;;11.25;11.00;;;;;18.59;45.13;100811.84;5041681;28;45383;-62
2023/05/04 06:43:41;;;;;;;;;13.50;12.50;;;;;18.62;45.22;100805.75;5015742;28;45384;-63
2023/05/04 06:46:06;;;;;;;;;13.50;11.75;;;;;18.73;45.33;100815.00;5048815;28;45343;-63
2023/05/04 06:48:32;;;;;;;;;12.25;11.25;;;;;18.80;45.01;100815.59;5017113;28;45452;-63
2023/05/04 06:50:57;;;;;;;;;13.25;13.25;;;;;18.72;44.92;100818.88;5016923;28;45436;-61
2023/05/04 06:53:24;;;;;;;;;16.50;15.25;;;;;18.76;45.13;100811.69;5031689;28;45394;-64
2023/05/04 06:55:49;;;;;;;;;14.20;13.20;;;;;18.79;44.67;100799.22;5016721;28;45336;-64
2023/05/04 06:58:18;;;;;;;;;11.50;11.50;;;;;18.81;44.83;100788.66;5016711;28;45415;-62
2023/05/04 07:00:44;;;;;;;;;15.40;13.80;;;;;18.92;44.75;100781.22;5048308;28;45496;-63
2023/05/04 07:03:09;;;;;;;;;14.75;13.50;;;;;19.01;44.78;100787.13;5047149;28;46123;-62
2023/05/04 07:05:38;;;;;;;;;14.00;12.00;;;;;18.99;44.50;100783.78;5048557;28;45365;-64
2023/05/04 07:08:03;;;;;;;;;13.60;13.20;;;;;18.93;44.67;100775.41;5047928;28;45321;-64
2023/05/04 07:10:29;;;;;;;;;12.00;11.00;;;;;19.02;44.57;100795.25;5049269;28;45547;-63
2023/05/04 07:12:54;;;;;;;;;13.25;10.50;;;;;19.02;44.83;100795.25;5016742;28;46339;-63
2023/05/04 07:15:20;;;;;;;;;12.25;11.75;;;;;19.08;44.69;100782.19;4948220;28;45417;-63
2023/05/04 07:17:46;;;;;;;;;14.25;14.25;;;;;19.03;44.57;100774.66;4978899;28;45433;-64
2023/05/04 07:20:12;;;;;;;;;13.00;12.00;;;;;19.12;44.69;100780.56;5030056;28;45453;-64
2023/05/04 07:22:38;;;;;;;;;14.20;14.00;;;;;19.16;44.51;100783.63;4923292;28;45891;-62
2023/05/04 07:25:04;;;;;;;;;13.50;13.00;;;;;19.17;44.38;100797.28;4917913;28;45594;-63
2023/05/04 07:27:30;;;;;;;;;13.25;11.50;;;;;19.16;44.74;100797.56;4932495;28;45714;-59
2023/05/04 07:29:56;;;;;;;;;13.00;11.20;;;;;19.29;44.68;100808.19;4913853;28;45385;-62
2023/05/04 07:32:21;;;;;;;;;11.00;11.00;;;;;19.26;44.38;100797.59;4986746;28;46335;-62
2023/05/04 07:34:47;;;;;;;;;10.00;10.00;;;;;19.37;44.25;100809.63;5014555;28;45452;-63
2023/05/04 07:37:12;;;;;;;;;11.25;8.75;;;;;19.30;44.47;100800.69;4968537;28;45987;-61
2023/05/04 07:39:38;;;;;;;;;11.50;10.75;;;;;19.32;44.66;100795.69;4932977;28;45409;-62
2023/05/04 07:42:04;;;;;;;;;13.75;13.75;;;;;19.39;44.46;100801.00;4930830;28;47511;-61
2023/05/04 07:44:30;;;;;;;;;12.60;12.60;;;;;19.56;44.70;100800.81;4932208;28;45491;-62
2023/05/04 07:46:59;;;;;;;;;11.50;11.50;;;;;19.67;44.46;100783.06;4956994;28;45841;-62
2023/05/04 07:49:24;;;;;;;;;12.80;11.00;;;;;19.83;44.25;100795.09;4992003;28;45689;-62
2023/05/04 07:51:50;;;;;;;;;14.25;13.50;;;;;19.86;44.15;100797.31;4913777;28;46163;-61
2023/05/04 07:54:16;;;;;;;;;12.00;12.00;;;;;19.88;44.05;100780.34;4913163;28;45387;-61
2023/05/04 07:56:41;;;;;;;;;11.75;10.25;;;;;19.96;43.99;100795.72;4928813;28;45382;-62
2023/05/04 07:59:07;;;;;;;;;12.50;11.50;;;;;20.08;43.88;100787.94;4912213;28;45436;-60
2023/05/04 08:01:32;;;;;;;;;14.25;12.25;;;;;20.01;43.45;100746.41;4927230;28;45722;-61
2023/05/04 08:03:58;;;;;;;;;14.00;11.25;;;;;20.37;43.62;100779.06;4913159;28;45691;-61
2023/05/04 08:06:23;;;;;;;;;14.00;11.75;;;;;20.41;43.25;100782.97;5002956;28;45382;-62
2023/05/04 08:08:49;;;;;;;;;17.25;15.00;;;;;20.40;43.35;100781.31;5048329;28;45231;-61
2023/05/04 08:11:15;;;;;;;;;13.00;10.50;;;;;20.35;43.35;100786.03;5046735;28;47486;-64
2023/05/04 08:13:40;;;;;;;;;14.00;13.25;;;;;20.31;43.46;100775.44;5025993;28;45704;-59
2023/05/04 08:16:08;;;;;;;;;10.00;9.25;;;;;20.34;43.65;100796.34;4900309;28;45898;-62
2023/05/04 08:18:33;;;;;;;;;14.20;12.20;;;;;20.26;43.50;100788.50;4914068;28;45796;-62
2023/05/04 08:20:59;;;;;;;;;13.25;10.50;;;;;20.29;43.56;100787.97;4975386;28;46457;-62
2023/05/04 08:23:24;;;;;;;;;13.75;12.75;;;;;20.35;43.66;100797.16;4911780;28;45757;-62
2023/05/04 08:25:51;;;;;;;;;12.00;11.75;;;;;20.34;43.71;100787.13;4911627;28;45433;-60
2023/05/04 08:28:17;;;;;;;;;18.40;15.00;;;;;20.48;43.71;100795.81;4911184;28;45635;-60
2023/05/04 08:30:42;;;;;;;;;12.80;12.80;;;;;20.55;43.65;100791.59;4928979;28;47205;-63
2023/05/04 08:33:08;;;;;;;;;15.25;15.25;;;;;20.54;43.79;100786.34;4947322;28;45464;-62
2023/05/04 08:35:34;;;;;;;;;11.75;11.75;;;;;20.64;43.54;100780.75;5014844;28;45367;-61
2023/05/04 08:38:00;;;;;;;;;18.00;13.75;;;;;20.72;43.42;100780.16;5047181;28;45269;-61
2023/05/04 08:40:26;;;;;;;;;12.00;12.00;;;;;20.64;43.45;100772.38;5042073;28;45793;-61
2023/05/04 08:42:51;;;;;;;;;14.75;14.50;;;;;20.69;43.41;100765.94;4948287;28;45354;-60
2023/05/04 08:45:17;;;;;;;;;17.50;14.25;;;;;20.72;43.63;100752.28;4913673;28;45373;-61
2023/05/04 08:47:43;;;;;;;;;12.50;11.75;;;;;20.83;43.19;100764.28;4913414;28;45503;-61
2023/05/04 08:50:09;;;;;;;;;13.20;12.60;;;;;21.03;43.23;100768.16;4914707;28;45420;-61
2023/05/04 08:52:36;;;;;;;;;16.20;13.80;;;;;21.15;43.14;100759.50;4913809;28;45466;-60
2023/05/04 08:55:02;;;;;;;;;13.40;12.60;;;;;21.20;42.92;100767.88;4948911;28;45369;-61
2023/05/04 08:57:27;;;;;;;;;12.50;12.25;;;;;21.32;42.81;100755.53;4913898;28;45370;-62
2023/05/04 08:59:54;;;;;;;;;13.50;12.25;;;;;21.33;42.69;100749.69;4928283;28;46649;-60
2023/05/04 09:02:22;;;;;;;;;13.20;13.20;;;;;21.22;42.85;100739.66;4928400;28;45388;-60
2023/05/04 09:04:49;;;;;;;;;12.20;12.20;;;;;21.40;42.75;100761.38;4913736;28;45485;-60
2023/05/04 09:07:16;;;;;;;;;14.40;11.60;;;;;21.47;42.75;100763.88;4932326;28;45409;-61
2023/05/04 09:09:41;;;;;;;;;11.80;11.20;;;;;21.55;42.53;100773.59;4943810;28;46522;-61
2023/05/04 09:12:07;;;;;;;;;11.50;11.50;;;;;21.49;42.45;100758.81;4914112;28;45476;-62
2023/05/04 09:14:33;;;;;;;;;11.25;11.25;;;;;21.55;42.54;100761.59;4905920;28;45880;-61
2023/05/04 09:17:02;;;;;;;;;15.40;13.00;;;;;21.58;42.44;100758.22;4915503;28;45603;-61
2023/05/04 09:19:37;;;;;;;;;12.80;12.80;;;;;21.66;42.38;100758.47;4915955;28;45681;-61
2023/05/04 09:22:13;;;;;;;;;13.80;12.80;;;;;21.71;42.13;100749.25;4928485;28;45871;-60
2023/05/04 09:24:39;;;;;;;;;13.60;11.40;;;;;21.80;42.15;100728.00;4928447;28;45408;-60
2023/05/04 09:27:11;;;;;;;;;15.75;12.75;;;;;21.83;42.12;100737.75;4913075;28;45445;-61
2023/05/04 09:29:39;;;;;;;;;10.80;10.20;;;;;21.85;42.07;100729.91;4916547;28;46590;-61
2023/05/04 09:32:05;;;;;;;;;13.80;13.00;;;;;21.88;42.10;100742.47;4928116;28;45529;-61
2023/05/04 09:34:31;;;;;;;;;11.75;10.50;;;;;21.95;41.79;100737.41;4912448;28;45546;-63
2023/05/04 09:37:01;;;;;;;;;15.20;12.60;;;;;22.05;41.90;100737.31;4914017;28;45696;-62
2023/05/04 09:39:26;;;;;;;;;11.80;10.80;;;;;22.11;41.72;100738.13;4913756;28;45629;-62
2023/05/04 09:41:52;;;;;;;;;11.00;10.50;;;;;22.05;41.41;100745.69;4916551;28;45362;-62
2023/05/04 09:44:18;;;;;;;;;9.75;9.75;;;;;21.98;41.85;100741.56;4927803;28;45345;-62
2023/05/04 09:46:54;;;;;;;;;8.00;7.00;;;;;22.01;41.87;100743.78;4913766;28;45427;-62
2023/05/04 09:49:32;;;;;;;;;12.00;10.80;;;;;22.10;41.89;100744.00;4913313;28;46530;-62
2023/05/04 09:51:58;;;;;;;;;13.80;13.80;;;;;22.14;41.82;100745.09;4913629;28;45410;-61
2023/05/04 09:54:24;;;;;;;;;10.80;9.00;;;;;22.12;41.65;100736.16;4916122;28;45397;-62
2023/05/04 09:56:50;;;;;;;;;13.00;11.75;;;;;22.12;41.82;100739.78;4912766;28;45584;-63
2023/05/04 09:59:15;;;;;;;;;13.50;13.50;;;;;22.04;41.78;100720.84;4911891;28;45895;-60
2023/05/04 10:01:41;;;;;;;;;14.00;12.67;;;;;22.15;41.35;100747.59;4896840;28;45394;-63
2023/05/04 10:04:06;;;;;;;;;9.75;9.75;;;;;22.16;41.31;100743.69;4913556;28;45383;-63
2023/05/04 10:06:32;;;;;;;;;12.50;9.25;;;;;22.22;41.28;100747.28;4931971;28;45573;-62
2023/05/04 10:09:00;;;;;;;;;11.25;11.25;;;;;22.29;41.38;100742.19;4963475;28;45408;-62
2023/05/04 10:11:26;;;;;;;;;12.40;12.40;;;;;22.34;41.22;100736.56;4914683;28;45971;-65
2023/05/04 10:13:53;;;;;;;;;10.00;9.00;;;;;22.43;41.18;100736.78;4927984;28;45478;-62
2023/05/04 10:16:49;;;;;;;;;10.20;10.20;;;;;22.55;41.13;100739.19;4903364;28;45591;-63
2023/05/04 10:19:41;;;;;;;;;10.80;8.20;;;;;22.53;41.16;100721.91;4910483;28;47642;-63
2023/05/04 10:22:28;;;;;;;;;8.60;8.60;;;;;22.70;40.38;100735.44;4911808;28;45456;-61
2023/05/04 10:25:11;;;;;;;;;12.00;8.20;;;;;22.75;40.49;100732.56;4913576;28;45756;-63
2023/05/04 10:27:49;;;;;;;;;13.00;11.80;;;;;22.79;40.60;100741.19;4926988;28;45480;-64
2023/05/04 10:30:15;;;;;;;;;10.00;9.40;;;;;22.88;40.42;100722.66;4910770;28;47293;-62
2023/05/04 10:32:40;;;;;;;;;9.50;9.00;;;;;23.02;40.39;100719.16;4959238;28;45409;-63
2023/05/04 10:35:06;;;;;;;;;8.75;8.75;;;;;23.06;39.91;100714.66;4912098;28;45363;-64
2023/05/04 10:37:32;;;;;;;;;12.60;11.80;;;;;23.17;39.39;100706.09;4928258;28;45332;-62
2023/05/04 10:39:57;;;;;;;;;12.00;8.00;;;;;23.32;39.13;100697.53;4929897;28;46572;-62
2023/05/04 10:42:26;;;;;;;;;6.50;6.50;;;;;23.61;38.75;100692.97;4928902;28;46101;-62
2023/05/04 10:44:53;;;;;;;;;10.80;9.40;;;;;23.75;38.50;100705.06;4911187;28;45404;-64
2023/05/04 10:47:31;;;;;;;;;12.60;12.60;;;;;23.79;38.00;100699.69;4896823;28;45741;-64
2023/05/04 10:50:03;;;;;;;;;9.60;9.60;;;;;23.80;38.10;100704.19;4926973;28;46268;-62
2023/05/04 10:52:30;;;;;;;;;8.60;7.40;;;;;23.79;38.42;100696.91;4927228;28;45963;-62
2023/05/04 10:55:00;;;;;;;;;9.60;9.00;;;;;23.99;38.02;100704.16;4902620;28;45793;-63
2023/05/04 10:57:27;;;;;;;;;5.80;5.40;;;;;24.03;37.79;100724.88;4930667;28;45384;-63
2023/05/04 10:59:57;;;;;;;;;8.60;8.60;;;;;23.94;37.08;100702.28;4930375;28;45426;-63
2023/05/04 11:02:23;;;;;;;;;12.20;12.20;;;;;23.86;37.35;100705.78;4914158;28;45431;-61
2023/05/04 11:05:05;;;;;;;;;9.20;9.20;;;;;23.85;37.94;100715.31;4916059;28;45393;-61
2023/05/04 11:07:37;;;;;;;;;10.00;9.40;;;;;23.87;37.77;100724.25;4871387;28;45810;-63
2023/05/04 11:10:04;;;;;;;;;8.60;6.60;;;;;23.86;36.86;100722.59;4935172;28;45448;-64
2023/05/04 11:12:32;;;;;;;;;4.20;4.00;;;;;23.87;36.81;100718.66;4959877;28;45339;-61